Time;durP1;ratioP1;P1;durP2;ratioP2;P2;SDS_P1;SDS_P2;PMS_P1;PMS_P2;Temp;Humidity;BMP_temperature;BMP_pressure;BME280_temperature;BME280_humidity;BME280_pressure;Samples;Min_cycle;Max_cycle;Signal;HPM_P1;HPM_P2
2022/04/17 00:00:17;;;;;;;22.95;14.27;;;7.80;57.60;;;;;;2346176;57;21062;-76
2022/04/17 00:02:45;;;;;;;24.27;14.82;;;7.70;57.70;;;;;;2593490;52;21110;-76
2022/04/17 00:05:13;;;;;;;23.67;15.05;;;7.70;58.00;;;;;;2345490;57;21560;-77
2022/04/17 00:07:40;;;;;;;26.98;15.15;;;7.70;58.10;;;;;;2345739;57;21055;-77
2022/04/17 00:10:09;;;;;;;24.73;14.50;;;7.60;58.20;;;;;;2592888;53;21537;-77
2022/04/17 00:12:39;;;;;;;23.80;14.38;;;7.60;58.30;;;;;;2346563;57;21061;-77
2022/04/17 00:15:09;;;;;;;22.62;12.90;;;7.60;58.30;;;;;;2346498;57;21050;-77
2022/04/17 00:17:42;;;;;;;19.37;11.75;;;7.60;58.50;;;;;;2346036;57;21643;-75
2022/04/17 00:20:11;;;;;;;20.70;12.32;;;7.50;58.50;;;;;;2592617;52;21042;-75
2022/04/17 00:22:39;;;;;;;19.12;12.48;;;7.50;58.60;;;;;;2345858;57;21604;-76
2022/04/17 00:25:09;;;;;;;20.95;12.82;;;7.50;58.70;;;;;;2346097;57;21192;-77
2022/04/17 00:27:39;;;;;;;23.08;13.68;;;7.50;58.80;;;;;;2345690;57;21046;-77
2022/04/17 00:30:09;;;;;;;19.05;12.65;;;7.50;58.80;;;;;;2593979;53;21058;-77
2022/04/17 00:32:37;;;;;;;22.30;13.65;;;7.40;58.90;;;;;;2346173;57;21124;-76
2022/04/17 00:35:06;;;;;;;22.55;14.05;;;7.40;59.00;;;;;;2346074;57;21555;-76
2022/04/17 00:37:34;;;;;;;21.02;13.35;;;7.40;59.00;;;;;;2345329;57;21050;-77
2022/04/17 00:40:02;;;;;;;25.67;14.70;;;7.40;59.00;;;;;;2592044;53;21034;-77
2022/04/17 00:45:08;;;;;;;28.40;16.48;;;7.30;59.10;;;;;;2355580;57;22082;-75
2022/04/17 00:47:35;;;;;;;27.60;14.73;;;7.30;58.90;;;;;;2592750;52;21121;-77
2022/04/17 00:50:05;;;;;;;24.00;15.30;;;7.30;59.00;;;;;;2346452;57;21049;-77
2022/04/17 00:52:33;;;;;;;32.05;17.60;;;7.30;58.90;;;;;;2346108;57;21535;-77
2022/04/17 00:55:04;;;;;;;32.08;18.58;;;7.30;58.90;;;;;;2346866;57;21034;-77
2022/04/17 00:57:32;;;;;;;27.75;16.83;;;7.30;58.90;;;;;;2345565;57;21145;-76
2022/04/17 01:00:00;;;;;;;29.50;17.05;;;7.20;58.90;;;;;;2346377;57;21117;-76
2022/04/17 01:02:28;;;;;;;28.42;15.85;;;7.20;59.00;;;;;;2346117;57;21110;-75
2022/04/17 01:04:55;;;;;;;26.02;15.60;;;7.20;59.20;;;;;;2345389;57;21054;-74
2022/04/17 01:07:23;;;;;;;24.98;15.73;;;7.20;59.30;;;;;;2344891;57;21053;-76
2022/04/17 01:09:52;;;;;;;28.38;15.90;;;7.20;59.40;;;;;;2592644;53;21536;-76
2022/04/17 01:12:19;;;;;;;25.77;15.65;;;7.10;59.30;;;;;;2592917;52;21113;-76
2022/04/17 01:14:48;;;;;;;26.35;15.23;;;7.10;59.30;;;;;;2346166;57;21544;-75
2022/04/17 01:17:16;;;;;;;25.98;15.52;;;7.10;59.10;;;;;;2345474;57;21038;-76
2022/04/17 01:19:43;;;;;;;28.12;15.68;;;7.10;58.80;;;;;;2593078;53;21648;-75
2022/04/17 01:22:12;;;;;;;24.73;14.55;;;7.10;58.80;;;;;;2346019;57;21443;-74
2022/04/17 01:27:15;;;;;;;25.30;16.10;;;7.00;59.10;;;;;;2312972;57;27948;-74
2022/04/17 01:29:43;;;;;;;27.80;16.12;;;6.40;62.20;;;;;;2347608;57;21100;-77
2022/04/17 01:32:12;;;;;;;30.55;17.23;;;6.70;61.60;;;;;;2595240;53;21532;-77
2022/04/17 01:34:39;;;;;;;28.35;16.65;;;6.90;60.80;;;;;;2347643;57;21117;-77
2022/04/17 01:37:07;;;;;;;28.67;16.00;;;6.90;60.20;;;;;;2346474;57;21149;-77
2022/04/17 01:39:35;;;;;;;26.42;15.40;;;6.90;59.90;;;;;;2347742;57;21109;-78
2022/04/17 01:42:03;;;;;;;26.17;15.20;;;6.90;60.00;;;;;;2347864;57;21042;-76
2022/04/17 01:44:31;;;;;;;28.05;14.95;;;6.90;59.80;;;;;;2347539;57;21034;-76
2022/04/17 01:47:00;;;;;;;23.48;14.68;;;6.90;60.70;;;;;;2347010;57;21137;-75
2022/04/17 01:49:28;;;;;;;26.35;14.38;;;6.90;60.10;;;;;;2347326;57;21109;-75
2022/04/17 01:51:57;;;;;;;24.10;15.35;;;6.90;60.00;;;;;;2347308;57;21093;-75
2022/04/17 01:54:25;;;;;;;22.95;13.57;;;6.90;59.90;;;;;;2594273;52;21137;-75
2022/04/17 01:56:54;;;;;;;20.75;13.43;;;6.90;59.90;;;;;;2347402;57;21022;-76
2022/04/17 01:59:22;;;;;;;21.40;12.48;;;6.90;60.10;;;;;;2347216;57;21042;-75
2022/04/17 02:01:51;;;;;;;23.52;13.40;;;6.80;60.40;;;;;;2347948;57;21092;-76
2022/04/17 02:04:18;;;;;;;28.73;15.77;;;6.80;60.80;;;;;;2346485;57;21044;-76
2022/04/17 02:06:47;;;;;;;31.55;17.55;;;6.80;60.90;;;;;;2347043;57;21121;-76
2022/04/17 02:09:16;;;;;;;31.05;17.83;;;6.70;61.10;;;;;;2347115;57;21061;-76
2022/04/17 02:11:45;;;;;;;29.58;15.88;;;6.70;61.30;;;;;;2347564;57;21034;-76
2022/04/17 02:14:14;;;;;;;35.15;17.50;;;6.60;61.30;;;;;;2347024;57;21117;-75
2022/04/17 02:16:41;;;;;;;36.03;19.67;;;6.60;62.20;;;;;;2346500;57;21058;-75
2022/04/17 02:19:09;;;;;;;35.83;19.00;;;6.60;61.70;;;;;;2347032;57;21112;-78
2022/04/17 02:21:37;;;;;;;34.72;19.27;;;6.60;61.70;;;;;;2595609;53;21046;-74
2022/04/17 02:24:05;;;;;;;34.40;18.70;;;6.60;61.80;;;;;;2347497;57;21524;-76
2022/04/17 02:26:34;;;;;;;32.15;16.83;;;6.60;61.70;;;;;;2347044;57;21030;-74
2022/04/17 02:29:02;;;;;;;31.25;16.33;;;6.60;61.60;;;;;;2347964;57;21062;-74
2022/04/17 02:31:31;;;;;;;33.05;15.75;;;6.60;61.50;;;;;;2346518;57;21058;-76
2022/04/17 02:33:59;;;;;;;26.62;15.20;;;6.60;61.50;;;;;;2594717;52;21120;-75
2022/04/17 02:36:27;;;;;;;28.70;15.60;;;6.60;61.50;;;;;;2347166;57;21033;-76
2022/04/17 02:38:55;;;;;;;29.83;15.57;;;6.60;61.30;;;;;;2346118;57;21144;-75
2022/04/17 02:41:23;;;;;;;28.62;15.65;;;6.50;61.10;;;;;;2346179;57;21034;-75
2022/04/17 02:43:51;;;;;;;28.40;15.25;;;6.60;60.90;;;;;;2346042;57;21133;-75
2022/04/17 02:49:05;;;;;;;27.15;15.35;;;6.50;60.30;;;;;;2592995;53;21520;-76
2022/04/17 02:51:33;;;;;;;22.42;14.23;;;6.50;60.50;;;;;;2346253;57;21053;-75
2022/04/17 02:54:01;;;;;;;32.78;15.73;;;6.50;60.70;;;;;;2594007;53;21524;-75
2022/04/17 02:56:28;;;;;;;29.10;16.33;;;6.40;61.00;;;;;;2345682;57;21061;-76
2022/04/17 02:58:56;;;;;;;36.25;17.98;;;6.40;61.20;;;;;;2346602;57;21041;-75
2022/04/17 03:07:20;;;;;;;30.08;17.00;;;6.20;61.60;;;;;;2297224;57;21565;-76
2022/04/17 03:09:48;;;;;;;31.87;17.12;;;6.10;61.70;;;;;;2346542;57;21109;-76
2022/04/17 03:12:15;;;;;;;30.08;16.08;;;6.00;61.90;;;;;;2347012;57;21611;-76
2022/04/17 03:14:46;;;;;;;25.92;14.15;;;6.00;62.10;;;;;;2345852;57;21117;-76
2022/04/17 03:17:14;;;;;;;27.80;14.57;;;6.10;62.20;;;;;;2346264;57;21037;-76
2022/04/17 03:19:42;;;;;;;26.98;13.90;;;6.00;62.10;;;;;;2593921;53;21038;-76
2022/04/17 03:22:09;;;;;;;25.33;14.38;;;6.00;62.10;;;;;;2345468;57;21113;-75
2022/04/17 03:24:37;;;;;;;23.87;13.88;;;6.00;62.20;;;;;;2346390;57;21082;-75
2022/04/17 03:27:05;;;;;;;24.02;13.60;;;6.00;62.30;;;;;;2592724;52;21038;-76
2022/04/17 03:29:32;;;;;;;24.60;13.62;;;6.00;62.50;;;;;;2346676;57;21077;-76
2022/04/17 03:32:00;;;;;;;19.87;13.48;;;6.00;62.70;;;;;;2346145;57;21046;-76
2022/04/17 03:34:27;;;;;;;25.58;14.95;;;6.00;62.80;;;;;;2346469;57;21180;-75
2022/04/17 03:36:57;;;;;;;21.08;13.57;;;5.90;62.40;;;;;;2593332;52;21022;-76
2022/04/17 03:39:25;;;;;;;24.90;14.52;;;5.90;62.20;;;;;;2346239;57;21437;-75
2022/04/17 03:41:53;;;;;;;27.58;14.18;;;5.90;62.00;;;;;;2346529;57;21528;-75
2022/04/17 03:44:20;;;;;;;23.52;13.62;;;5.90;61.90;;;;;;2346240;57;21564;-76
2022/04/17 03:46:48;;;;;;;23.45;14.15;;;5.90;61.90;;;;;;2345323;57;21049;-75
2022/04/17 03:49:17;;;;;;;26.77;15.93;;;5.90;62.10;;;;;;2346397;57;21121;-76
2022/04/17 03:51:44;;;;;;;27.42;16.05;;;5.80;62.70;;;;;;2346540;57;21114;-75
2022/04/17 03:54:12;;;;;;;33.90;17.55;;;5.90;63.70;;;;;;2346438;57;21041;-76
2022/04/17 03:56:40;;;;;;;29.90;16.10;;;5.90;64.30;;;;;;2345703;57;21041;-75
2022/04/17 03:59:07;;;;;;;22.92;12.63;;;5.90;63.90;;;;;;2346219;57;21121;-75
2022/04/17 04:01:35;;;;;;;20.37;12.18;;;5.90;63.40;;;;;;2346613;57;21050;-74
2022/04/17 04:04:02;;;;;;;22.33;12.55;;;5.90;63.20;;;;;;2346282;57;21030;-76
2022/04/17 04:06:30;;;;;;;23.98;12.85;;;5.90;63.10;;;;;;2346266;57;21098;-76
2022/04/17 04:08:57;;;;;;;21.10;12.77;;;5.90;62.90;;;;;;2346349;57;21069;-74
2022/04/17 04:11:25;;;;;;;23.33;12.77;;;5.90;62.50;;;;;;2346405;57;21038;-76
2022/04/17 04:13:53;;;;;;;23.33;12.85;;;5.80;62.10;;;;;;2611209;51;21038;-75
2022/04/17 04:16:21;;;;;;;26.83;13.82;;;5.90;62.20;;;;;;2384972;56;21026;-76
2022/04/17 04:18:48;;;;;;;20.48;12.25;;;5.80;62.00;;;;;;2384951;56;21011;-75
2022/04/17 04:21:16;;;;;;;20.83;11.50;;;5.80;62.10;;;;;;2384398;56;21102;-75
2022/04/17 04:23:43;;;;;;;21.50;11.55;;;5.80;62.20;;;;;;2385384;56;21078;-75
2022/04/17 04:26:11;;;;;;;28.48;14.15;;;5.70;62.60;;;;;;2384727;56;21102;-75
2022/04/17 04:28:38;;;;;;;21.05;12.02;;;5.60;62.70;;;;;;2607067;51;21060;-75
2022/04/17 04:31:07;;;;;;;22.30;12.63;;;5.50;63.30;;;;;;2312053;58;21103;-75
2022/04/17 04:33:35;;;;;;;17.90;10.38;;;5.50;63.50;;;;;;2312878;58;22036;-75
2022/04/17 04:36:05;;;;;;;17.98;10.65;;;5.40;63.90;;;;;;2311516;58;21068;-74
2022/04/17 04:38:33;;;;;;;18.08;10.35;;;5.40;64.20;;;;;;2311387;58;21140;-74
2022/04/17 04:41:01;;;;;;;16.23;10.48;;;5.40;64.30;;;;;;2312425;58;21551;-74
2022/04/17 04:43:29;;;;;;;13.65;9.38;;;5.40;64.30;;;;;;2552236;54;21049;-75
2022/04/17 04:46:09;;;;;;;16.05;10.55;;;5.40;64.30;;;;;;2311558;58;21574;-75
2022/04/17 04:51:23;;;;;;;16.62;10.80;;;5.40;64.40;;;;;;2312164;58;21020;-75
2022/04/17 04:53:51;;;;;;;16.62;10.00;;;5.50;64.50;;;;;;2311258;58;21574;-75
2022/04/17 04:56:20;;;;;;;14.63;9.30;;;5.50;64.60;;;;;;2311732;58;21086;-74
2022/04/17 04:58:47;;;;;;;16.62;10.07;;;5.50;64.80;;;;;;2312302;58;21131;-75
2022/04/17 05:01:15;;;;;;;17.85;9.95;;;5.50;64.80;;;;;;2311969;58;21602;-74
2022/04/17 05:03:43;;;;;;;16.75;10.13;;;5.50;64.70;;;;;;2312154;58;21061;-75
2022/04/17 05:06:11;;;;;;;14.63;9.85;;;5.60;64.60;;;;;;2311558;58;21063;-75
2022/04/17 05:08:38;;;;;;;16.50;10.50;;;5.60;64.40;;;;;;2312575;58;21539;-75
2022/04/17 05:11:06;;;;;;;19.95;10.10;;;5.60;64.00;;;;;;2311780;58;21068;-75
2022/04/17 05:13:34;;;;;;;18.95;10.18;;;5.60;63.90;;;;;;2310671;58;21625;-75
2022/04/17 05:16:02;;;;;;;19.40;10.63;;;5.60;63.80;;;;;;2311581;58;21068;-75
2022/04/17 05:18:30;;;;;;;16.45;9.95;;;5.60;63.60;;;;;;2312489;58;21048;-75
2022/04/17 05:20:57;;;;;;;18.08;10.60;;;5.60;63.40;;;;;;2312096;58;21068;-74
2022/04/17 05:23:26;;;;;;;19.75;11.38;;;5.60;63.60;;;;;;2312092;58;22241;-75
2022/04/17 05:25:55;;;;;;;17.60;10.50;;;5.70;63.90;;;;;;2311771;58;21068;-75
2022/04/17 05:28:23;;;;;;;15.48;9.77;;;5.70;63.80;;;;;;2311758;58;21063;-75
2022/04/17 05:30:51;;;;;;;18.05;10.82;;;5.70;63.90;;;;;;2312085;58;21151;-75
2022/04/17 05:33:20;;;;;;;17.27;10.70;;;5.70;63.90;;;;;;2311708;58;21099;-75
2022/04/17 05:35:48;;;;;;;20.20;11.05;;;5.70;63.80;;;;;;2311377;58;21060;-75
2022/04/17 05:38:16;;;;;;;22.55;11.57;;;5.70;63.70;;;;;;2312359;58;21622;-75
2022/04/17 05:40:46;;;;;;;24.23;11.82;;;5.70;63.90;;;;;;2312065;58;21341;-75
2022/04/17 05:43:14;;;;;;;15.93;10.68;;;5.80;64.00;;;;;;2312537;58;21127;-74
2022/04/17 05:45:42;;;;;;;17.48;11.02;;;5.80;64.10;;;;;;2311145;57;21108;-75
2022/04/17 05:48:10;;;;;;;19.35;12.73;;;5.80;64.20;;;;;;2311694;58;21554;-75
2022/04/17 05:50:38;;;;;;;21.08;10.50;;;5.80;64.20;;;;;;2312078;58;21119;-75
2022/04/17 05:53:06;;;;;;;18.20;11.38;;;5.80;64.50;;;;;;2311502;58;21567;-75
2022/04/17 05:55:36;;;;;;;23.85;12.30;;;5.90;64.90;;;;;;2311325;58;21059;-74
2022/04/17 05:58:03;;;;;;;19.67;11.20;;;5.80;64.90;;;;;;2312199;58;21120;-75
2022/04/17 06:00:31;;;;;;;19.77;11.27;;;5.90;65.60;;;;;;2312011;58;21052;-75
2022/04/17 06:02:59;;;;;;;19.25;11.65;;;5.90;65.30;;;;;;2311233;58;21052;-75
2022/04/17 06:05:27;;;;;;;21.95;11.57;;;6.00;65.50;;;;;;2311690;58;21111;-75
2022/04/17 06:07:54;;;;;;;22.70;12.20;;;6.00;65.50;;;;;;2311956;58;21068;-74
2022/04/17 06:10:22;;;;;;;19.25;11.95;;;6.00;65.40;;;;;;2311713;58;21056;-74
2022/04/17 06:12:49;;;;;;;18.83;11.98;;;6.10;65.30;;;;;;2312117;58;21603;-74
2022/04/17 06:15:17;;;;;;;20.17;11.95;;;6.10;65.30;;;;;;2311882;58;21226;-75
2022/04/17 06:17:45;;;;;;;17.70;11.00;;;6.10;65.60;;;;;;2312188;58;21184;-75
2022/04/17 06:20:15;;;;;;;19.92;9.48;;;6.20;65.90;;;;;;2312123;58;21558;-74
2022/04/17 06:22:42;;;;;;;16.35;8.65;;;6.20;66.00;;;;;;2552411;54;21080;-75
2022/04/17 06:25:13;;;;;;;16.87;9.27;;;6.30;65.80;;;;;;2311022;58;21140;-75
2022/04/17 06:27:42;;;;;;;14.07;8.38;;;6.30;65.50;;;;;;2311010;58;21064;-75
2022/04/17 06:30:12;;;;;;;11.25;7.97;;;6.30;65.20;;;;;;2312099;58;21119;-75
2022/04/17 06:32:40;;;;;;;11.82;7.62;;;6.40;64.90;;;;;;2312066;58;21585;-74
2022/04/17 06:35:10;;;;;;;11.25;6.65;;;6.50;64.60;;;;;;2312383;58;21593;-74
2022/04/17 06:37:48;;;;;;;12.27;6.65;;;6.50;64.50;;;;;;2311965;58;21067;-75
2022/04/17 06:40:17;;;;;;;10.45;6.32;;;6.60;64.30;;;;;;2312388;58;21140;-75
2022/04/17 06:42:45;;;;;;;12.02;6.68;;;6.60;64.10;;;;;;2311751;58;21630;-75
2022/04/17 06:45:13;;;;;;;11.50;6.05;;;6.70;64.00;;;;;;2311945;58;21712;-75
2022/04/17 06:47:40;;;;;;;10.90;6.55;;;6.80;63.90;;;;;;2311865;58;21056;-76
2022/04/17 06:50:09;;;;;;;8.48;5.32;;;6.80;63.50;;;;;;2312247;58;21076;-76
2022/04/17 06:52:36;;;;;;;10.98;5.68;;;6.90;63.20;;;;;;2312037;58;21676;-75
2022/04/17 06:55:08;;;;;;;9.52;5.72;;;6.90;63.00;;;;;;2312052;58;21562;-75
2022/04/17 06:57:37;;;;;;;8.10;5.10;;;7.00;62.90;;;;;;2311733;58;21072;-75
2022/04/17 07:00:10;;;;;;;9.38;5.35;;;7.10;62.80;;;;;;2311651;58;21077;-76
2022/04/17 07:02:38;;;;;;;8.73;4.87;;;7.10;62.70;;;;;;2312370;58;21637;-75
2022/04/17 07:05:08;;;;;;;7.12;4.82;;;7.20;62.60;;;;;;2311868;58;21157;-76
2022/04/17 07:07:36;;;;;;;7.47;4.47;;;7.30;62.40;;;;;;2310465;58;21044;-76
2022/04/17 07:10:05;;;;;;;8.57;5.07;;;7.30;62.20;;;;;;2311419;58;21072;-76
2022/04/17 07:12:34;;;;;;;6.12;4.70;;;7.40;61.90;;;;;;2310885;58;21156;-76
2022/04/17 07:15:02;;;;;;;6.70;4.30;;;7.50;61.80;;;;;;2311554;58;21122;-76
2022/04/17 07:17:34;;;;;;;9.25;4.95;;;7.60;61.40;;;;;;2311760;58;21132;-76
2022/04/17 07:20:05;;;;;;;7.70;4.20;;;7.60;61.00;;;;;;2312271;58;21135;-75
2022/04/17 07:22:33;;;;;;;9.38;5.20;;;7.80;61.10;;;;;;2312435;58;21421;-76
2022/04/17 07:25:01;;;;;;;6.53;3.53;;;7.90;60.50;;;;;;2310319;58;21131;-75
2022/04/17 07:27:34;;;;;;;6.15;4.00;;;7.90;60.40;;;;;;2309897;58;21115;-76
2022/04/17 07:30:01;;;;;;;5.62;4.10;;;8.00;59.90;;;;;;2311506;58;21106;-77
2022/04/17 07:32:30;;;;;;;6.60;3.33;;;8.20;59.50;;;;;;2311129;58;21187;-76
2022/04/17 07:34:57;;;;;;;6.15;3.40;;;8.20;58.50;;;;;;2310147;58;21330;-77
2022/04/17 07:37:28;;;;;;;5.72;3.75;;;8.30;58.00;;;;;;2551215;53;21583;-77
2022/04/17 07:39:55;;;;;;;4.12;3.12;;;8.40;57.10;;;;;;2311823;58;21561;-77
2022/04/17 07:42:23;;;;;;;4.75;3.00;;;8.50;57.40;;;;;;2312088;58;21040;-76
2022/04/17 07:44:50;;;;;;;5.30;3.20;;;8.50;57.30;;;;;;2310039;58;21135;-78
2022/04/17 07:47:18;;;;;;;6.57;2.90;;;8.70;57.10;;;;;;2311684;58;21622;-77
2022/04/17 07:49:45;;;;;;;5.00;3.12;;;8.80;56.90;;;;;;2311450;58;21127;-76
2022/04/17 07:52:13;;;;;;;4.15;2.62;;;8.90;56.30;;;;;;2311798;58;21765;-77
2022/04/17 07:54:40;;;;;;;4.97;3.03;;;8.90;55.70;;;;;;2312203;58;21048;-76
2022/04/17 07:57:13;;;;;;;4.62;3.10;;;9.00;55.20;;;;;;2551268;53;21628;-76
2022/04/17 07:59:41;;;;;;;6.30;3.33;;;9.10;55.40;;;;;;2311065;58;21203;-77
2022/04/17 08:02:22;;;;;;;6.03;3.28;;;9.20;55.30;;;;;;2551097;54;21126;-75
2022/04/17 08:04:51;;;;;;;5.95;3.00;;;9.30;55.00;;;;;;2312355;58;21326;-76
2022/04/17 08:07:19;;;;;;;3.53;2.58;;;9.40;55.10;;;;;;2311815;58;21064;-76
2022/04/17 08:09:47;;;;;;;4.22;3.12;;;9.40;54.80;;;;;;2312131;58;21199;-76
2022/04/17 08:12:14;;;;;;;3.80;2.62;;;9.50;54.30;;;;;;2312255;58;21075;-77
2022/04/17 08:14:42;;;;;;;3.65;2.45;;;9.60;53.20;;;;;;2309541;58;21434;-75
2022/04/17 08:17:09;;;;;;;3.37;2.35;;;9.60;52.00;;;;;;2311011;58;21060;-76
2022/04/17 08:19:37;;;;;;;2.60;1.92;;;9.70;51.10;;;;;;2312017;58;21053;-76
2022/04/17 08:22:05;;;;;;;3.17;2.00;;;9.70;50.70;;;;;;2311824;58;21056;-76
2022/04/17 08:24:32;;;;;;;4.12;2.17;;;9.80;51.60;;;;;;2311655;58;21064;-76
2022/04/17 08:27:00;;;;;;;4.07;2.53;;;9.80;51.70;;;;;;2311332;58;21121;-75
2022/04/17 08:29:28;;;;;;;4.05;2.25;;;9.80;52.70;;;;;;2551423;54;21071;-75
2022/04/17 08:31:55;;;;;;;2.95;1.92;;;9.90;52.00;;;;;;2311288;58;21052;-76
2022/04/17 08:34:23;;;;;;;3.12;2.20;;;10.00;51.60;;;;;;2311632;58;21094;-76
2022/04/17 08:36:50;;;;;;;2.47;1.62;;;10.10;51.80;;;;;;2311255;58;21210;-75
2022/04/17 08:39:18;;;;;;;1.98;1.45;;;10.10;50.80;;;;;;2311428;58;21060;-74
2022/04/17 08:41:48;;;;;;;2.20;1.58;;;10.20;49.00;;;;;;2312169;58;21100;-75
2022/04/17 08:44:16;;;;;;;2.75;1.55;;;10.30;49.10;;;;;;2311563;58;21147;-74
2022/04/17 08:46:43;;;;;;;2.05;1.50;;;10.30;48.40;;;;;;2310422;58;21408;-75
2022/04/17 08:49:11;;;;;;;2.15;1.62;;;10.40;47.80;;;;;;2310747;58;21063;-74
2022/04/17 08:51:40;;;;;;;1.60;1.50;;;10.50;48.00;;;;;;2311417;58;21060;-74
2022/04/17 08:54:08;;;;;;;1.62;1.50;;;10.50;47.70;;;;;;2311163;58;21135;-75
2022/04/17 08:56:36;;;;;;;2.87;1.60;;;10.60;47.60;;;;;;2310862;58;21068;-75
2022/04/17 08:59:05;;;;;;;2.75;1.60;;;10.60;47.50;;;;;;2311688;58;21433;-73
2022/04/17 09:01:35;;;;;;;1.92;1.48;;;10.70;47.80;;;;;;2311581;58;21080;-75
2022/04/17 09:04:04;;;;;;;1.42;1.20;;;10.80;47.80;;;;;;2311176;58;21063;-74
2022/04/17 09:06:31;;;;;;;1.55;1.30;;;10.80;47.30;;;;;;2311388;58;21128;-74
2022/04/17 09:09:00;;;;;;;1.62;1.17;;;10.90;46.70;;;;;;2550779;54;21104;-75
2022/04/17 09:11:29;;;;;;;1.90;1.33;;;10.90;46.30;;;;;;2311885;58;21131;-74
2022/04/17 09:13:58;;;;;;;1.35;1.20;;;11.00;44.80;;;;;;2311629;58;21052;-74
2022/04/17 09:16:29;;;;;;;2.45;1.50;;;11.00;45.20;;;;;;2311804;58;21104;-75
2022/04/17 09:18:58;;;;;;;2.12;1.35;;;11.10;45.90;;;;;;2312485;58;21057;-75
2022/04/17 09:21:35;;;;;;;2.85;1.20;;;11.10;45.20;;;;;;2312357;58;21132;-75
2022/04/17 09:24:17;;;;;;;1.35;1.10;;;11.20;45.80;;;;;;2551469;54;21116;-75
2022/04/17 09:26:52;;;;;;;1.42;1.20;;;11.20;46.10;;;;;;2311858;58;21049;-74
2022/04/17 09:29:22;;;;;;;3.47;1.20;;;11.20;45.60;;;;;;2311353;58;21203;-75
2022/04/17 09:31:57;;;;;;;1.60;1.15;;;11.30;45.20;;;;;;2311815;58;21127;-75
2022/04/17 09:34:26;;;;;;;2.03;1.00;;;11.40;45.20;;;;;;2551802;54;21963;-77
2022/04/17 09:36:57;;;;;;;2.25;1.17;;;11.40;44.80;;;;;;2311261;58;21044;-77
2022/04/17 09:39:32;;;;;;;2.17;1.08;;;11.50;44.40;;;;;;2310908;58;21116;-77
2022/04/17 09:42:02;;;;;;;2.65;0.88;;;11.60;43.30;;;;;;2311596;58;21139;-77
2022/04/17 09:47:17;;;;;;;1.20;0.98;;;11.70;42.70;;;;;;2356085;57;22054;-73
2022/04/17 09:49:57;;;;;;;2.80;1.20;;;11.80;42.90;;;;;;2374936;56;21119;-73
2022/04/17 09:52:26;;;;;;;1.35;1.02;;;11.90;43.30;;;;;;2375964;56;21052;-74
2022/04/17 09:54:53;;;;;;;0.95;0.90;;;11.90;43.60;;;;;;2375845;56;21048;-74
2022/04/17 09:57:32;;;;;;;1.12;1.00;;;12.00;43.50;;;;;;2375898;56;21128;-74
2022/04/17 10:00:10;;;;;;;3.05;1.17;;;12.00;43.90;;;;;;2376231;56;21052;-75
2022/04/17 10:02:39;;;;;;;1.12;0.80;;;12.10;43.70;;;;;;2376171;56;21060;-73
2022/04/17 10:05:10;;;;;;;0.95;0.93;;;12.10;43.90;;;;;;2376020;56;21412;-73
2022/04/17 10:07:41;;;;;;;2.90;1.00;;;12.10;42.80;;;;;;2375907;56;21036;-74
2022/04/17 10:10:11;;;;;;;1.15;1.05;;;12.20;42.00;;;;;;2375796;56;21057;-75
2022/04/17 10:12:40;;;;;;;3.15;1.35;;;12.30;43.70;;;;;;2376015;56;21128;-76
2022/04/17 10:15:10;;;;;;;3.03;1.10;;;12.30;44.60;;;;;;2375847;56;21055;-75
2022/04/17 10:17:41;;;;;;;1.37;1.00;;;12.40;44.80;;;;;;2376054;56;21087;-75
2022/04/17 10:20:14;;;;;;;1.62;1.10;;;12.50;44.40;;;;;;2375988;56;21134;-73
2022/04/17 10:22:43;;;;;;;1.20;1.00;;;12.60;43.60;;;;;;2630222;52;21082;-73
2022/04/17 10:25:11;;;;;;;1.75;1.30;;;12.60;43.90;;;;;;2375928;56;21303;-74
2022/04/17 10:27:44;;;;;;;1.65;1.25;;;12.70;43.30;;;;;;2630127;52;21048;-73
2022/04/17 10:30:15;;;;;;;1.75;1.40;;;12.80;44.00;;;;;;2433457;52;21063;-76
2022/04/17 10:33:23;;;;;;;5.93;1.23;;;12.90;43.30;;;;;;2431312;52;21044;-79
2022/04/17 10:36:23;;;;;;;2.37;1.25;;;12.90;43.50;;;;;;2406416;55;21615;-78
2022/04/17 10:39:05;;;;;;;2.53;1.40;;;13.00;43.70;;;;;;2406562;55;21032;-79
2022/04/17 10:41:32;;;;;;;3.00;1.30;;;13.10;41.80;;;;;;2406751;54;21555;-79
2022/04/17 10:44:03;;;;;;;1.40;1.25;;;13.20;41.40;;;;;;2406687;55;21016;-79
2022/04/17 10:46:44;;;;;;;1.92;1.40;;;13.30;42.20;;;;;;2406445;52;21033;-79
2022/04/17 10:49:11;;;;;;;1.90;1.40;;;13.40;42.50;;;;;;2412892;52;21520;-78
2022/04/17 10:51:41;;;;;;;2.58;1.65;;;13.50;42.80;;;;;;2406701;55;21509;-78
2022/04/17 10:54:10;;;;;;;1.87;1.30;;;13.60;42.30;;;;;;2406932;55;21040;-78
2022/04/17 10:56:39;;;;;;;3.87;1.98;;;13.70;42.20;;;;;;2408272;52;21107;-78
2022/04/17 10:59:16;;;;;;;2.30;1.58;;;13.80;41.00;;;;;;2405374;56;21646;-78
2022/04/17 11:01:55;;;;;;;3.22;1.60;;;13.90;41.00;;;;;;2404444;56;21111;-78
2022/04/17 11:04:27;;;;;;;2.78;1.30;;;14.00;41.30;;;;;;2407314;52;21044;-78
2022/04/17 11:07:14;;;;;;;1.67;1.30;;;14.10;38.30;;;;;;2404798;52;21108;-78
2022/04/17 11:09:46;;;;;;;1.92;1.25;;;14.10;37.90;;;;;;2405820;56;21029;-78
2022/04/17 11:12:26;;;;;;;2.60;1.55;;;14.20;38.30;;;;;;2405566;56;21055;-80
2022/04/17 11:14:55;;;;;;;2.05;1.12;;;14.30;37.70;;;;;;2405989;56;21032;-79
2022/04/17 11:17:24;;;;;;;2.30;1.40;;;14.40;39.60;;;;;;2434144;52;21033;-79
2022/04/17 11:19:56;;;;;;;1.65;1.10;;;14.60;38.40;;;;;;2406011;56;21103;-80
2022/04/17 11:22:32;;;;;;;2.55;1.20;;;14.70;37.10;;;;;;2421515;52;21548;-80
2022/04/17 11:25:07;;;;;;;0.98;0.90;;;14.80;37.20;;;;;;2406148;52;21075;-80
2022/04/17 11:27:38;;;;;;;3.90;1.50;;;14.90;37.50;;;;;;2403803;54;21029;-79
2022/04/17 11:30:08;;;;;;;1.23;0.88;;;15.00;36.20;;;;;;2404546;54;21307;-79
2022/04/17 11:32:51;;;;;;;2.28;1.58;;;15.10;37.50;;;;;;2404514;56;21111;-77
2022/04/17 11:35:24;;;;;;;2.65;1.30;;;15.20;38.10;;;;;;2403770;56;21036;-78
2022/04/17 11:37:54;;;;;;;1.87;1.30;;;15.30;38.40;;;;;;2420206;52;21528;-77
2022/04/17 11:40:25;;;;;;;1.90;1.50;;;15.40;37.80;;;;;;2404629;53;21085;-77
2022/04/17 11:42:54;;;;;;;2.42;1.00;;;15.60;37.30;;;;;;2423884;52;21575;-77
2022/04/17 11:45:23;;;;;;;1.90;1.17;;;15.70;37.50;;;;;;2404452;56;21100;-77
2022/04/17 11:47:52;;;;;;;1.33;1.10;;;15.70;38.80;;;;;;2439260;52;21021;-79
2022/04/17 11:50:27;;;;;;;1.55;1.10;;;15.80;38.30;;;;;;2404618;56;21028;-78
2022/04/17 11:52:55;;;;;;;1.87;1.00;;;15.90;36.10;;;;;;2404575;56;21044;-77
2022/04/17 11:55:28;;;;;;;1.87;1.10;;;16.00;36.80;;;;;;2404330;54;21040;-77
2022/04/17 11:57:56;;;;;;;1.33;0.90;;;16.10;37.00;;;;;;2404782;56;21659;-78
2022/04/17 12:00:25;;;;;;;2.92;1.25;;;16.20;39.30;;;;;;2404652;56;21079;-77
2022/04/17 12:02:56;;;;;;;3.72;1.42;;;16.30;38.60;;;;;;2406630;52;21040;-77
2022/04/17 12:05:24;;;;;;;2.25;1.08;;;16.40;36.70;;;;;;2402797;56;21056;-77
2022/04/17 12:08:02;;;;;;;1.48;1.05;;;16.50;35.90;;;;;;2401148;53;21123;-76
2022/04/17 12:10:29;;;;;;;1.00;0.90;;;16.60;34.80;;;;;;2404340;56;21082;-77
2022/04/17 12:12:58;;;;;;;2.80;1.10;;;16.80;34.80;;;;;;2404561;56;21040;-77
2022/04/17 12:15:25;;;;;;;4.18;1.00;;;16.90;34.70;;;;;;2404351;56;21005;-77
2022/04/17 12:18:00;;;;;;;1.20;1.10;;;17.00;36.60;;;;;;2664608;52;21020;-77
2022/04/17 12:20:28;;;;;;;1.17;0.98;;;17.00;34.90;;;;;;2462319;52;21493;-78
2022/04/17 12:22:56;;;;;;;1.85;1.20;;;17.10;34.40;;;;;;2404292;56;21028;-79
2022/04/17 12:25:25;;;;;;;2.05;1.15;;;17.10;34.10;;;;;;2404321;56;21029;-77
2022/04/17 12:27:54;;;;;;;3.40;1.20;;;17.20;34.20;;;;;;2404314;56;21687;-77
2022/04/17 12:30:24;;;;;;;1.10;0.90;;;17.20;33.80;;;;;;2404489;56;21049;-77
2022/04/17 12:32:55;;;;;;;1.58;1.08;;;17.30;33.90;;;;;;2488339;52;21151;-78
2022/04/17 12:35:24;;;;;;;3.08;1.30;;;17.40;34.60;;;;;;2403572;56;21607;-79
2022/04/17 12:38:06;;;;;;;1.67;1.20;;;17.50;33.50;;;;;;2600677;52;21084;-77
2022/04/17 12:40:42;;;;;;;0.93;0.90;;;17.60;32.70;;;;;;2404052;56;21517;-78
2022/04/17 12:43:17;;;;;;;1.20;1.10;;;17.60;33.10;;;;;;2404391;52;21032;-78
2022/04/17 12:45:55;;;;;;;1.17;1.08;;;17.60;32.80;;;;;;2404584;56;21182;-79
2022/04/17 12:48:28;;;;;;;1.60;1.23;;;17.70;33.20;;;;;;2404716;56;21115;-81
2022/04/17 12:51:01;;;;;;;1.80;1.00;;;17.80;33.70;;;;;;2404655;56;21036;-80
2022/04/17 12:53:35;;;;;;;1.20;1.03;;;17.90;34.90;;;;;;2405239;56;21591;-77
2022/04/17 12:56:03;;;;;;;3.20;1.23;;;18.00;32.70;;;;;;2404164;56;21084;-77
2022/04/17 12:58:45;;;;;;;1.20;1.10;;;18.00;33.00;;;;;;2404573;56;21103;-78
2022/04/17 13:01:20;;;;;;;1.40;1.10;;;18.10;32.90;;;;;;2404758;56;21533;-76
2022/04/17 13:03:48;;;;;;;2.08;1.00;;;18.20;34.10;;;;;;2404510;56;21107;-77
2022/04/17 13:06:21;;;;;;;1.92;1.05;;;18.20;33.00;;;;;;2404007;53;21552;-78
2022/04/17 13:09:12;;;;;;;2.40;1.55;;;18.30;32.00;;;;;;2516220;52;21544;-79
2022/04/17 13:11:42;;;;;;;1.73;1.02;;;18.30;30.80;;;;;;2404805;56;21104;-77
2022/04/17 13:14:10;;;;;;;1.48;1.20;;;18.40;32.20;;;;;;2457665;52;21608;-78